Time;durP1;ratioP1;P1;durP2;ratioP2;P2;SDS_P1;SDS_P2;PMS_P1;PMS_P2;Temp;Humidity;BMP_temperature;BMP_pressure;BME280_temperature;BME280_humidity;BME280_pressure;Samples;Min_cycle;Max_cycle;Signal;HPM_P1;HPM_P2
2021/09/30 00:01:28;;;;;;;2.60;2.40;;;;;;;9.99;85.33;101083.66;5024230;28;20202;-77
2021/09/30 00:03:55;;;;;;;2.43;1.93;;;;;;;10.01;85.13;101086.22;5031364;28;20252;-78
2021/09/30 00:06:21;;;;;;;2.83;2.07;;;;;;;10.05;85.00;101088.84;5033718;28;20285;-79
2021/09/30 00:08:48;;;;;;;2.87;1.73;;;;;;;9.99;84.68;101103.63;5033368;28;20207;-78
2021/09/30 00:11:20;;;;;;;3.23;2.10;;;;;;;10.06;85.41;101100.97;5033557;28;20206;-80
2021/09/30 00:13:50;;;;;;;3.07;2.40;;;;;;;9.99;84.62;101114.06;5033773;28;20194;-78
2021/09/30 00:16:31;;;;;;;1.90;1.80;;;;;;;10.05;84.74;101124.47;5025701;28;20351;-79
2021/09/30 00:32:46;;;;;;;2.23;2.03;;;;;;;9.88;84.03;101146.28;5010510;28;20870;-77
2021/09/30 00:40:55;;;;;;;5.23;2.00;;;;;;;9.67;83.88;101164.63;5016535;28;20210;-79
2021/09/30 00:46:06;;;;;;;2.90;1.80;;;;;;;9.70;84.15;101160.28;4973723;28;20588;-78
2021/09/30 00:48:46;;;;;;;1.97;1.73;;;;;;;9.74;84.37;101159.38;5016151;28;20301;-78
2021/09/30 00:51:20;;;;;;;2.03;1.80;;;;;;;9.70;83.99;101168.09;5016925;28;20199;-77
2021/09/30 01:19:36;;;;;;;2.33;1.33;;;;;;;9.56;83.91;101197.69;5035192;28;20213;-77
2021/09/30 01:34:08;;;;;;;2.57;1.30;;;;;;;9.65;83.62;101224.59;5007481;28;20562;-78
2021/09/30 02:21:00;;;;;;;2.00;1.90;;;;;;;9.63;83.56;101244.59;5015405;28;20200;-78
2021/09/30 02:58:03;;;;;;;1.97;1.70;;;;;;;9.73;83.04;101281.91;5088533;28;20573;-76
2021/09/30 02:59:47;;;;;;;1.87;1.77;;;;;;;9.62;82.94;101292.38;5088401;28;20238;-76
2021/09/30 03:02:17;;;;;;;3.50;2.13;;;;;;;9.61;82.82;101292.38;5084428;28;20712;-76
2021/09/30 03:04:44;;;;;;;2.00;1.80;;;;;;;9.66;82.91;101291.50;5088260;28;20649;-77
2021/09/30 03:07:11;;;;;;;2.57;2.03;;;;;;;9.67;82.69;101306.28;5088077;28;20760;-77
2021/09/30 03:09:40;;;;;;;2.83;2.10;;;;;;;9.63;82.72;101309.78;5088076;28;20356;-77
2021/09/30 03:12:16;;;;;;;3.07;2.00;;;;;;;9.57;82.71;101317.56;5088389;28;20212;-76
2021/09/30 03:14:47;;;;;;;2.40;2.20;;;;;;;9.58;82.96;101313.25;5088639;28;20188;-78
2021/09/30 03:17:19;;;;;;;2.40;2.20;;;;;;;9.47;82.67;101323.66;5088187;28;20220;-75
2021/09/30 03:19:56;;;;;;;5.53;2.13;;;;;;;9.51;83.21;101314.97;5088085;28;20200;-78
2021/09/30 03:22:22;;;;;;;3.60;2.37;;;;;;;9.37;83.46;101304.53;5088382;28;20215;-76
2021/09/30 03:24:50;;;;;;;2.77;2.57;;;;;;;9.41;83.75;101292.38;5088124;28;20200;-77
2021/09/30 03:27:19;;;;;;;3.90;2.80;;;;;;;9.41;83.81;101292.38;5088014;28;20228;-75
2021/09/30 03:29:45;;;;;;;3.20;2.90;;;;;;;9.28;83.79;101301.94;5087989;28;20204;-76
2021/09/30 03:32:12;;;;;;;3.30;3.00;;;;;;;9.27;83.99;101300.19;5083833;28;20204;-75
2021/09/30 03:34:40;;;;;;;3.57;3.27;;;;;;;9.24;84.30;101284.59;5088168;28;20204;-77
2021/09/30 03:37:07;;;;;;;3.60;3.30;;;;;;;9.30;84.52;101277.63;5088050;28;20227;-76
2021/09/30 03:39:33;;;;;;;4.60;4.07;;;;;;;9.24;84.26;101280.25;5079094;28;20251;-77
2021/09/30 03:42:00;;;;;;;5.03;3.57;;;;;;;9.30;84.71;101272.41;5074441;28;20579;-76
2021/09/30 03:44:27;;;;;;;4.20;3.90;;;;;;;9.21;84.69;101280.22;5074219;28;20205;-75
2021/09/30 03:46:53;;;;;;;4.57;4.17;;;;;;;9.30;84.58;101282.84;5074243;28;20319;-77
2021/09/30 03:49:25;;;;;;;4.33;4.03;;;;;;;9.27;84.60;101295.00;5066266;28;20250;-76
2021/09/30 03:51:59;;;;;;;4.27;3.97;;;;;;;9.23;84.56;101296.72;5074405;28;20236;-77
2021/09/30 03:54:30;;;;;;;4.93;4.53;;;;;;;9.24;84.54;101293.25;5061860;28;20209;-77
2021/09/30 03:57:10;;;;;;;4.70;4.30;;;;;;;9.22;85.13;101273.31;5071842;28;20225;-75
2021/09/30 03:59:35;;;;;;;5.07;4.57;;;;;;;9.26;84.83;101273.28;5068104;28;20196;-77
2021/09/30 04:02:02;;;;;;;4.53;4.17;;;;;;;9.16;84.81;101281.97;5073792;28;20199;-75
2021/09/30 04:04:31;;;;;;;4.03;3.83;;;;;;;9.14;85.13;101278.50;5073974;28;20208;-76
2021/09/30 04:07:02;;;;;;;4.27;3.97;;;;;;;9.16;85.08;101279.38;5073905;28;20225;-76
2021/09/30 04:09:29;;;;;;;7.63;4.97;;;;;;;9.13;84.86;101285.44;5073824;28;20189;-76
2021/09/30 04:11:57;;;;;;;4.97;4.47;;;;;;;9.17;84.95;101281.09;5064993;28;20212;-76
2021/09/30 04:14:23;;;;;;;5.00;4.50;;;;;;;9.20;84.99;101291.53;5073682;28;20682;-76
2021/09/30 04:16:50;;;;;;;7.30;4.30;;;;;;;9.22;85.35;101288.94;5065174;28;20243;-76
2021/09/30 04:19:17;;;;;;;4.70;3.97;;;;;;;9.18;84.91;101297.59;5073250;28;20197;-77
2021/09/30 04:21:45;;;;;;;5.10;4.50;;;;;;;9.11;85.36;101297.59;5073638;28;20258;-76
2021/09/30 04:24:12;;;;;;;4.60;4.20;;;;;;;9.15;85.19;101299.31;5073490;28;20664;-75
2021/09/30 04:26:39;;;;;;;5.00;4.60;;;;;;;9.17;85.19;101295.88;5073398;28;20297;-77
2021/09/30 04:29:05;;;;;;;4.83;4.43;;;;;;;9.04;85.04;101307.97;5073327;28;20278;-76
2021/09/30 04:31:32;;;;;;;5.63;4.43;;;;;;;9.11;85.37;101294.97;5071727;28;20790;-75
2021/09/30 04:33:58;;;;;;;5.07;4.57;;;;;;;9.13;84.94;101301.06;5071495;28;20205;-77
2021/09/30 04:36:25;;;;;;;4.70;4.30;;;;;;;9.15;84.82;101317.56;5073503;28;20270;-77
2021/09/30 04:38:53;;;;;;;5.30;4.90;;;;;;;9.09;84.63;101320.16;5072888;28;20681;-75
2021/09/30 04:41:21;;;;;;;7.40;4.47;;;;;;;9.12;84.65;101327.13;5073221;28;20205;-78
2021/09/30 04:43:48;;;;;;;4.77;4.47;;;;;;;9.11;84.90;101309.75;5073240;28;20205;-76
2021/09/30 04:46:18;;;;;;;5.00;4.70;;;;;;;9.03;85.05;101311.47;5073061;28;20229;-76
2021/09/30 04:48:44;;;;;;;5.00;4.60;;;;;;;9.13;84.90;101326.25;5072527;28;20229;-77
2021/09/30 04:51:11;;;;;;;5.80;5.30;;;;;;;9.12;84.64;101334.94;5072377;28;20209;-75
2021/09/30 04:53:38;;;;;;;4.27;3.97;;;;;;;9.10;84.91;101321.03;5073330;28;20568;-77
2021/09/30 04:56:04;;;;;;;4.67;4.33;;;;;;;9.11;84.98;101320.16;5072561;28;20655;-77
2021/09/30 04:58:33;;;;;;;5.00;4.60;;;;;;;9.04;84.41;101339.25;5074050;28;20201;-76
2021/09/30 05:00:59;;;;;;;6.23;4.50;;;;;;;9.09;85.40;101320.16;5072347;28;20205;-77
2021/09/30 05:03:26;;;;;;;5.77;5.07;;;;;;;9.15;85.12;101340.13;5070076;28;20239;-76
2021/09/30 05:05:52;;;;;;;5.07;4.57;;;;;;;9.07;84.68;101345.31;5072742;28;20221;-75
2021/09/30 05:08:18;;;;;;;4.90;4.60;;;;;;;8.94;85.28;101341.84;5072209;28;20776;-77
2021/09/30 05:10:47;;;;;;;5.33;4.80;;;;;;;8.93;85.44;101308.84;5072348;28;20205;-76
2021/09/30 05:13:18;;;;;;;6.00;5.40;;;;;;;8.94;85.75;101318.41;5072586;28;20212;-77
2021/09/30 05:15:45;;;;;;;5.50;5.03;;;;;;;8.87;85.80;101314.03;5072550;28;20734;-77
2021/09/30 05:18:13;;;;;;;5.53;5.13;;;;;;;8.92;86.52;101291.50;5072407;28;20204;-77
2021/09/30 05:20:39;;;;;;;6.20;5.70;;;;;;;9.04;86.50;101297.56;5072944;28;20207;-81
2021/09/30 05:23:06;;;;;;;5.47;5.10;;;;;;;9.00;86.25;101304.53;5061092;28;20209;-80
2021/09/30 05:25:32;;;;;;;6.70;5.90;;;;;;;9.05;85.64;101310.59;5067329;28;20258;-79
2021/09/30 05:27:58;;;;;;;6.77;5.97;;;;;;;9.10;86.02;101301.06;5072915;28;20761;-80
2021/09/30 05:30:25;;;;;;;6.17;5.67;;;;;;;9.19;85.79;101315.81;5073331;28;20208;-83
2021/09/30 05:32:52;;;;;;;6.23;5.73;;;;;;;9.24;85.84;101311.50;5070548;28;20634;-81
2021/09/30 05:35:19;;;;;;;6.37;5.87;;;;;;;9.23;86.02;101324.53;5073257;28;20208;-81
2021/09/30 05:37:45;;;;;;;6.10;5.60;;;;;;;9.22;85.36;101331.47;5073404;28;20200;-81
2021/09/30 05:40:15;;;;;;;7.00;5.70;;;;;;;9.26;85.64;101332.34;5072392;28;20213;-81
2021/09/30 05:42:43;;;;;;;5.70;5.20;;;;;;;9.24;85.45;101334.94;5073008;28;20208;-81
2021/09/30 05:45:12;;;;;;;6.47;5.87;;;;;;;9.29;85.60;101342.75;5072909;28;20203;-82
2021/09/30 05:47:38;;;;;;;6.80;5.57;;;;;;;9.35;85.66;101332.34;5073063;28;20205;-82
2021/09/30 05:50:07;;;;;;;5.90;5.40;;;;;;;9.41;85.09;101344.50;5072487;28;20209;-82
2021/09/30 05:52:35;;;;;;;5.20;4.70;;;;;;;9.32;85.09;101353.19;5073016;28;20208;-82
2021/09/30 05:55:01;;;;;;;5.50;5.03;;;;;;;9.28;84.92;101360.13;5072920;28;20205;-80
2021/09/30 05:57:28;;;;;;;6.30;5.80;;;;;;;9.35;85.39;101342.75;5072242;28;20643;-79
2021/09/30 05:59:54;;;;;;;6.10;5.50;;;;;;;9.38;85.48;101332.34;5072450;28;20205;-80
2021/09/30 06:10:40;;;;;;;8.37;4.90;;;;;;;9.44;84.92;101366.22;5073402;28;20702;-80
2021/09/30 06:13:09;;;;;;;5.17;4.77;;;;;;;9.43;85.26;101361.88;5074795;28;20189;-80
2021/09/30 06:15:38;;;;;;;5.33;4.93;;;;;;;9.38;85.56;101348.00;5073801;28;20224;-81
2021/09/30 06:18:07;;;;;;;6.10;5.60;;;;;;;9.41;85.64;101344.50;5060921;28;20243;-79
2021/09/30 06:20:35;;;;;;;5.70;5.03;;;;;;;9.41;85.92;101340.16;5073712;28;20234;-79
2021/09/30 06:23:01;;;;;;;8.63;5.37;;;;;;;9.46;85.68;101348.00;5073256;28;20291;-81
2021/09/30 06:25:28;;;;;;;5.90;5.40;;;;;;;9.46;85.69;101348.84;5072770;28;20204;-82
2021/09/30 06:27:54;;;;;;;5.47;4.77;;;;;;;9.55;85.43;101342.75;5073228;28;20220;-80
2021/09/30 06:30:21;;;;;;;6.13;4.83;;;;;;;9.57;85.61;101351.44;5075900;28;20205;-80
2021/09/30 06:32:49;;;;;;;5.57;4.80;;;;;;;9.52;85.15;101363.63;5076552;28;20201;-81
2021/09/30 06:35:16;;;;;;;7.50;5.50;;;;;;;9.50;85.77;101365.38;5075611;28;20200;-82
2021/09/30 06:37:44;;;;;;;5.30;4.83;;;;;;;9.45;85.81;101373.16;5074216;28;20675;-79
2021/09/30 06:40:11;;;;;;;5.87;4.97;;;;;;;9.56;86.08;101347.13;5075111;28;20212;-79
2021/09/30 06:42:37;;;;;;;5.57;4.47;;;;;;;9.63;85.56;101366.22;5073913;28;20205;-79
2021/09/30 06:45:05;;;;;;;5.83;4.30;;;;;;;9.67;85.46;101381.00;5072856;28;20290;-77
2021/09/30 06:47:36;;;;;;;6.20;5.07;;;;;;;9.77;85.42;101368.81;5071831;28;20224;-77
2021/09/30 06:50:04;;;;;;;5.30;4.90;;;;;;;9.81;84.54;101415.78;5072416;28;20587;-79
2021/09/30 06:52:30;;;;;;;4.77;4.37;;;;;;;9.88;84.53;101408.81;5072349;28;20200;-77
2021/09/30 06:54:58;;;;;;;5.40;4.53;;;;;;;9.88;84.61;101411.41;5071861;28;20258;-77
2021/09/30 06:57:27;;;;;;;4.50;4.10;;;;;;;9.81;84.46;101418.38;5070976;28;20722;-78
2021/09/30 06:59:54;;;;;;;6.00;4.40;;;;;;;9.82;84.88;101414.91;5071641;28;20201;-77
2021/09/30 07:02:22;;;;;;;5.80;5.20;;;;;;;9.80;85.30;101408.81;5067975;28;20255;-78
2021/09/30 07:04:49;;;;;;;5.07;4.67;;;;;;;9.88;85.60;101406.19;5071239;28;20193;-77
2021/09/30 07:07:15;;;;;;;5.20;4.80;;;;;;;9.98;85.23;101407.94;5071314;28;20286;-78
2021/09/30 07:09:42;;;;;;;4.90;4.47;;;;;;;9.98;85.12;101425.31;5071151;28;20225;-79
2021/09/30 07:12:10;;;;;;;7.40;4.63;;;;;;;9.93;85.13;101428.81;5071429;28;20217;-76
2021/09/30 07:14:36;;;;;;;8.30;4.77;;;;;;;9.89;85.16;101420.97;5073434;28;20206;-79
2021/09/30 07:17:03;;;;;;;7.53;5.20;;;;;;;9.93;85.13;101420.97;5075537;28;20224;-78
2021/09/30 07:19:31;;;;;;;5.20;4.80;;;;;;;9.88;85.26;101411.41;5074914;28;20262;-77
2021/09/30 07:21:57;;;;;;;5.90;4.33;;;;;;;9.94;85.51;101400.97;5074828;28;20671;-79
2021/09/30 07:24:23;;;;;;;5.87;5.07;;;;;;;9.99;85.60;101399.25;5075035;28;20204;-76
2021/09/30 07:26:50;;;;;;;5.07;4.00;;;;;;;9.99;85.55;101403.56;5074447;28;20233;-77
2021/09/30 07:29:17;;;;;;;7.90;4.40;;;;;;;10.08;85.35;101408.78;5074582;28;20760;-75
2021/09/30 07:31:44;;;;;;;6.40;4.30;;;;;;;10.10;85.06;101422.69;5072484;28;20576;-78
2021/09/30 07:34:12;;;;;;;7.30;4.33;;;;;;;10.18;84.86;101415.72;5074397;28;20193;-77
2021/09/30 07:36:39;;;;;;;5.23;4.83;;;;;;;10.20;84.52;101447.91;5075038;28;20606;-77
2021/09/30 07:39:06;;;;;;;5.80;4.10;;;;;;;10.24;84.76;101420.94;5075306;28;20201;-78
2021/09/30 07:41:32;;;;;;;3.97;3.40;;;;;;;10.28;84.05;101445.28;5077348;28;20260;-79
2021/09/30 07:43:59;;;;;;;4.80;3.73;;;;;;;10.36;84.45;101458.34;5075719;28;20227;-78
2021/09/30 07:46:26;;;;;;;9.20;4.33;;;;;;;10.39;84.17;101471.41;5074916;28;20229;-78
2021/09/30 07:48:53;;;;;;;4.50;3.90;;;;;;;10.43;84.01;101474.00;5074454;28;20221;-77
2021/09/30 07:51:19;;;;;;;4.00;2.80;;;;;;;10.42;83.17;101502.72;5074876;28;20254;-77
2021/09/30 07:53:45;;;;;;;8.60;4.37;;;;;;;10.50;83.65;101498.34;5074748;28;20345;-78
2021/09/30 07:56:12;;;;;;;6.27;3.00;;;;;;;10.52;83.80;101494.88;5075963;28;20251;-78
2021/09/30 07:58:38;;;;;;;6.43;2.60;;;;;;;10.59;83.26;101487.91;5074114;28;20205;-79
2021/09/30 08:01:04;;;;;;;6.67;2.63;;;;;;;10.63;82.74;101518.34;5074740;28;20200;-78
2021/09/30 08:03:32;;;;;;;8.63;3.07;;;;;;;10.62;82.35;101545.31;5071617;28;20587;-78
2021/09/30 08:05:58;;;;;;;4.87;2.67;;;;;;;10.68;82.58;101541.84;5074199;28;20251;-76
2021/09/30 08:08:24;;;;;;;5.13;2.70;;;;;;;10.75;83.24;101512.25;5073648;28;20212;-76
2021/09/30 08:10:51;;;;;;;3.90;2.80;;;;;;;10.75;82.19;101551.41;5073819;28;20267;-75
2021/09/30 08:13:18;;;;;;;4.33;2.67;;;;;;;10.80;82.38;101560.13;5074141;28;20265;-76
2021/09/30 08:15:45;;;;;;;4.63;2.50;;;;;;;10.82;82.29;101566.22;5073824;28;20229;-76
2021/09/30 08:18:11;;;;;;;6.37;2.83;;;;;;;10.85;81.17;101589.69;5073578;28;20205;-76
2021/09/30 08:20:42;;;;;;;7.10;2.40;;;;;;;10.83;80.51;101617.56;5071739;28;20202;-76
2021/09/30 08:23:09;;;;;;;4.80;2.43;;;;;;;10.93;81.33;101605.38;5073987;28;20232;-77
2021/09/30 08:25:36;;;;;;;5.33;3.00;;;;;;;10.98;81.59;101602.72;5073640;28;20237;-77
2021/09/30 08:28:02;;;;;;;3.17;2.20;;;;;;;11.03;80.94;101616.66;5073312;28;20680;-75
2021/09/30 08:30:29;;;;;;;3.97;3.03;;;;;;;10.98;79.48;101670.66;5073889;28;20221;-76
2021/09/30 08:32:55;;;;;;;9.23;3.07;;;;;;;11.05;80.42;101654.13;5073822;28;20628;-76
2021/09/30 08:35:22;;;;;;;6.40;2.33;;;;;;;11.18;80.74;101631.44;5075255;28;20201;-77
2021/09/30 08:37:50;;;;;;;5.87;2.27;;;;;;;11.23;79.20;101674.13;5075881;28;20632;-77
2021/09/30 08:40:16;;;;;;;6.17;2.67;;;;;;;11.19;79.13;101701.13;5075541;28;20251;-77
2021/09/30 08:42:44;;;;;;;4.80;2.40;;;;;;;11.19;79.08;101715.06;5073618;28;20259;-76
2021/09/30 08:45:12;;;;;;;6.00;2.37;;;;;;;11.30;79.60;101691.53;5074291;28;20244;-77
2021/09/30 08:47:38;;;;;;;3.57;2.23;;;;;;;11.28;78.18;101732.50;5073285;28;20225;-77
2021/09/30 08:50:05;;;;;;;3.73;2.30;;;;;;;11.33;79.54;101709.81;5073501;28;20320;-76
2021/09/30 08:52:32;;;;;;;5.90;2.90;;;;;;;11.41;80.81;101661.00;5074664;28;20231;-77
2021/09/30 08:54:59;;;;;;;6.17;1.97;;;;;;;11.29;78.72;101703.72;5074701;28;20201;-76
2021/09/30 08:57:26;;;;;;;6.77;1.90;;;;;;;11.34;79.40;101706.34;5074061;28;20224;-76
2021/09/30 09:00:04;;;;;;;4.90;1.93;;;;;;;11.32;79.15;101708.97;5073623;28;20571;-77
2021/09/30 09:02:31;;;;;;;5.23;2.50;;;;;;;11.44;79.54;101695.00;5064513;28;20271;-77
2021/09/30 09:04:59;;;;;;;2.23;1.90;;;;;;;11.51;79.70;101694.09;5071681;28;20197;-76
2021/09/30 09:07:28;;;;;;;4.30;1.77;;;;;;;11.51;78.82;101704.53;5073318;28;20224;-76
2021/09/30 09:09:54;;;;;;;4.23;2.57;;;;;;;11.50;78.92;101713.28;5073538;28;20224;-76
2021/09/30 09:12:23;;;;;;;5.20;2.57;;;;;;;11.53;77.67;101765.59;5064851;28;20675;-76
2021/09/30 09:14:50;;;;;;;8.07;3.07;;;;;;;11.41;77.25;101776.03;5063901;28;20194;-76
2021/09/30 09:17:18;;;;;;;5.03;2.53;;;;;;;11.44;77.40;101768.22;5061293;28;20217;-77
2021/09/30 09:19:49;;;;;;;3.80;2.23;;;;;;;11.49;77.89;101762.97;5061412;28;20261;-76
2021/09/30 09:22:17;;;;;;;4.37;2.23;;;;;;;11.54;77.08;101792.59;5062570;28;20622;-77
2021/09/30 09:24:57;;;;;;;4.13;1.80;;;;;;;11.58;76.65;101783.88;5061320;28;20250;-77
2021/09/30 09:27:44;;;;;;;5.93;1.83;;;;;;;11.54;77.29;101790.00;5063022;28;20229;-78
2021/09/30 09:30:25;;;;;;;5.57;2.43;;;;;;;11.61;77.71;101777.75;5062904;28;20221;-77
2021/09/30 09:33:04;;;;;;;4.20;2.57;;;;;;;11.74;77.83;101750.72;5066690;28;20346;-77
2021/09/30 09:35:44;;;;;;;3.63;1.50;;;;;;;11.84;76.44;101791.66;5063710;28;20204;-77
2021/09/30 09:38:12;;;;;;;7.47;1.90;;;;;;;11.89;75.09;101831.81;5060286;28;20206;-76
2021/09/30 09:40:39;;;;;;;5.40;2.10;;;;;;;11.86;74.16;101889.34;5064267;28;20202;-77
2021/09/30 09:43:25;;;;;;;5.90;1.97;;;;;;;11.90;75.59;101845.78;5062958;28;20603;-77
2021/09/30 09:45:51;;;;;;;7.03;1.67;;;;;;;11.97;74.71;101857.09;5051787;28;20248;-77
2021/09/30 09:48:18;;;;;;;5.40;2.03;;;;;;;12.07;74.84;101862.31;5051902;28;20194;-77
2021/09/30 09:50:44;;;;;;;6.93;2.20;;;;;;;12.20;74.88;101860.53;5051746;28;20762;-77
2021/09/30 09:53:10;;;;;;;2.93;1.53;;;;;;;12.19;72.88;101905.91;5052441;28;20251;-77
2021/09/30 09:55:39;;;;;;;3.57;1.67;;;;;;;12.21;74.01;101901.53;5052808;28;20268;-76
2021/09/30 09:58:10;;;;;;;5.03;1.83;;;;;;;12.28;73.62;101910.25;5051802;28;20211;-76
2021/09/30 10:00:38;;;;;;;5.03;1.23;;;;;;;12.31;74.18;101898.03;5057066;28;20248;-77
2021/09/30 10:03:13;;;;;;;4.97;2.20;;;;;;;12.44;73.14;101901.47;5064258;28;20220;-76
2021/09/30 10:05:43;;;;;;;3.23;1.40;;;;;;;12.43;71.38;101965.22;5063554;28;20222;-77
2021/09/30 10:08:11;;;;;;;3.33;2.00;;;;;;;12.42;71.54;101973.06;5062580;28;20252;-77
2021/09/30 10:10:38;;;;;;;3.40;1.73;;;;;;;12.56;72.67;101931.13;5065403;28;20225;-77
2021/09/30 10:13:06;;;;;;;4.87;1.80;;;;;;;12.64;73.08;101931.97;5060933;28;20197;-78
2021/09/30 10:15:35;;;;;;;4.13;1.77;;;;;;;12.71;71.99;101960.75;5062772;28;20201;-78
2021/09/30 10:18:03;;;;;;;5.60;1.77;;;;;;;12.79;72.01;101965.97;5064226;28;20231;-77
2021/09/30 10:20:30;;;;;;;3.77;1.83;;;;;;;12.77;68.62;102088.28;5062069;28;20221;-78
2021/09/30 10:22:57;;;;;;;3.87;1.60;;;;;;;12.84;68.57;102102.22;5063687;28;20246;-77
2021/09/30 10:25:31;;;;;;;5.43;1.50;;;;;;;12.80;67.71;102134.56;5061334;28;20194;-78
2021/09/30 10:28:01;;;;;;;4.43;1.27;;;;;;;12.88;68.69;102128.44;5061102;28;20253;-79
2021/09/30 10:30:32;;;;;;;1.77;1.00;;;;;;;12.93;67.07;102138.91;5060821;28;20222;-77
2021/09/30 10:33:01;;;;;;;12.03;2.10;;;;;;;12.86;66.43;102213.16;5062864;28;20205;-79
2021/09/30 10:35:34;;;;;;;2.73;1.30;;;;;;;13.00;68.24;102138.03;5060328;28;20193;-79
2021/09/30 10:38:18;;;;;;;3.17;1.30;;;;;;;12.94;67.09;102193.06;5062513;28;20194;-77
2021/09/30 10:41:06;;;;;;;7.27;1.63;;;;;;;13.03;67.89;102158.13;5061905;28;20251;-78
2021/09/30 10:43:35;;;;;;;3.73;1.50;;;;;;;12.97;65.04;102234.16;5060801;28;20779;-78
2021/09/30 10:46:02;;;;;;;1.60;1.50;;;;;;;13.08;65.57;102221.91;5060004;28;20231;-79
2021/09/30 10:48:42;;;;;;;3.73;2.03;;;;;;;13.27;65.87;102205.28;5063588;28;20583;-78
2021/09/30 10:51:11;;;;;;;9.13;1.90;;;;;;;13.35;64.51;102244.66;5056359;28;20244;-77
2021/09/30 10:53:56;;;;;;;3.70;1.50;;;;;;;13.41;64.23;102263.00;5055859;28;20222;-78
2021/09/30 10:56:39;;;;;;;4.33;2.07;;;;;;;13.49;65.04;102240.25;5055338;28;20222;-78
2021/09/30 10:59:39;;;;;;;3.87;1.20;;;;;;;13.54;63.85;102279.59;5055624;28;20553;-77
2021/09/30 11:02:05;;;;;;;4.57;1.40;;;;;;;13.40;62.83;102341.69;5050815;28;20255;-77
2021/09/30 11:05:02;;;;;;;4.10;1.87;;;;;;;13.33;63.74;102295.38;5064811;28;20201;-77
2021/09/30 11:07:29;;;;;;;1.73;1.07;;;;;;;13.40;63.04;102321.59;5066689;28;20217;-77
2021/09/30 11:10:16;;;;;;;3.00;1.77;;;;;;;13.35;62.56;102340.81;5065261;28;20281;-78
2021/09/30 11:13:16;;;;;;;2.73;1.30;;;;;;;13.39;63.73;102308.47;5064445;28;20284;-77
2021/09/30 11:16:03;;;;;;;4.87;1.37;;;;;;;13.42;61.69;102374.94;5066337;28;20304;-78
2021/09/30 11:18:49;;;;;;;5.63;1.90;;;;;;;13.55;61.88;102346.06;5064209;28;20741;-77
2021/09/30 11:21:44;;;;;;;12.37;1.77;;;;;;;13.58;62.20;102335.59;5064130;28;20216;-77
2021/09/30 11:24:27;;;;;;;4.67;1.40;;;;;;;13.58;62.05;102346.06;5067494;28;20202;-77
2021/09/30 11:27:22;;;;;;;6.37;2.20;;;;;;;13.61;63.00;102302.31;5055566;28;20599;-77
2021/09/30 11:29:49;;;;;;;4.97;2.00;;;;;;;13.83;61.68;102349.53;5055065;28;20230;-77
2021/09/30 11:32:24;;;;;;;4.50;1.20;;;;;;;13.89;61.28;102378.38;5056213;28;20210;-78
2021/09/30 11:34:52;;;;;;;4.13;1.53;;;;;;;13.61;61.66;102380.16;5055205;28;20208;-77
2021/09/30 11:37:21;;;;;;;2.00;1.37;;;;;;;13.38;63.17;102310.22;5065729;28;20224;-77
2021/09/30 11:39:50;;;;;;;2.13;1.40;;;;;;;13.44;62.23;102306.72;5065385;28;20668;-79
2021/09/30 11:42:17;;;;;;;5.00;1.37;;;;;;;13.67;62.34;102317.19;5055373;28;20269;-79
2021/09/30 11:44:57;;;;;;;6.60;1.83;;;;;;;13.65;62.53;102343.41;5055717;28;20672;-79
2021/09/30 11:47:24;;;;;;;4.17;1.80;;;;;;;13.47;62.63;102333.81;5055538;28;20235;-79
2021/09/30 11:49:51;;;;;;;4.80;1.77;;;;;;;13.64;62.90;102317.19;5054909;28;20222;-77
2021/09/30 11:52:17;;;;;;;2.30;1.17;;;;;;;13.99;61.99;102319.72;4360554;28;10000664;-78
2021/09/30 11:54:43;;;;;;;2.33;1.07;;;;;;;15.00;57.78;102457.75;5073778;28;20251;-79
2021/09/30 11:57:20;;;;;;;3.87;1.43;;;;;;;15.24;56.10;102566.38;5072679;28;20224;-79
2021/09/30 11:59:47;;;;;;;2.60;1.20;;;;;;;15.40;56.39;102569.84;5073351;28;20191;-80
2021/09/30 12:02:13;;;;;;;3.67;1.30;;;;;;;15.72;55.53;102590.75;5073639;28;20203;-79
2021/09/30 12:04:43;;;;;;;2.13;1.20;;;;;;;15.38;55.64;102618.97;5074787;28;20237;-78
2021/09/30 12:07:16;;;;;;;2.60;1.10;;;;;;;16.21;52.65;102669.50;5073914;28;20266;-80
2021/09/30 12:09:43;;;;;;;3.30;0.90;;;;;;;16.40;52.53;102708.91;5073994;28;20215;-77
2021/09/30 12:12:09;;;;;;;3.17;1.27;;;;;;;16.46;51.33;102773.00;5072599;28;20258;-76
2021/09/30 12:14:38;;;;;;;3.50;1.07;;;;;;;15.68;53.29;102721.53;5073808;28;20292;-79
2021/09/30 12:17:07;;;;;;;2.07;1.00;;;;;;;15.17;55.91;102610.28;5071500;28;20650;-77
2021/09/30 12:19:35;;;;;;;4.13;1.40;;;;;;;14.95;56.70;102533.19;5068768;28;20573;-79
2021/09/30 12:22:07;;;;;;;3.23;1.30;;;;;;;15.05;58.23;102469.16;5074454;28;20205;-80
2021/09/30 12:24:34;;;;;;;4.20;1.97;;;;;;;14.75;57.37;102499.09;5074013;28;20246;-78
2021/09/30 12:27:00;;;;;;;4.03;2.53;;;;;;;14.38;58.16;102451.84;5072979;28;20614;-79
2021/09/30 12:29:27;;;;;;;6.40;2.53;;;;;;;14.78;57.73;102457.00;5073643;28;20210;-77
2021/09/30 12:32:05;;;;;;;4.13;1.63;;;;;;;15.69;54.99;102560.00;5073853;28;20608;-79
2021/09/30 12:34:31;;;;;;;5.03;1.53;;;;;;;15.65;53.46;102671.50;5073930;28;20210;-80
2021/09/30 12:36:58;;;;;;;6.60;1.70;;;;;;;15.38;55.64;102590.00;5072804;28;20737;-80
2021/09/30 12:39:25;;;;;;;2.03;1.70;;;;;;;15.24;56.28;102542.72;5072250;28;20252;-79
2021/09/30 12:41:52;;;;;;;5.33;1.60;;;;;;;16.20;55.31;102537.75;5074071;28;20196;-79
2021/09/30 12:44:20;;;;;;;4.63;1.80;;;;;;;17.12;52.32;102665.22;5072014;28;20259;-79
2021/09/30 12:46:50;;;;;;;3.10;1.30;;;;;;;18.33;48.17;102840.81;5072395;28;20282;-77
2021/09/30 12:49:19;;;;;;;2.33;1.13;;;;;;;18.83;46.92;102908.09;5066958;28;20208;-77
2021/09/30 12:51:46;;;;;;;3.60;1.30;;;;;;;18.71;45.88;102989.38;5071957;28;20710;-79
2021/09/30 12:54:12;;;;;;;4.03;1.40;;;;;;;19.04;44.89;102977.50;5072090;28;20618;-77
2021/09/30 12:56:40;;;;;;;3.13;1.20;;;;;;;18.77;45.31;102969.03;5072819;28;20251;-78
2021/09/30 12:59:11;;;;;;;5.50;1.60;;;;;;;18.94;45.08;102955.59;5071150;28;20701;-79
2021/09/30 13:01:38;;;;;;;1.70;1.03;;;;;;;17.91;45.06;102940.88;5073084;28;20247;-80
2021/09/30 13:04:13;;;;;;;3.37;1.10;;;;;;;16.82;47.24;102842.25;5073711;28;20279;-79
2021/09/30 13:06:43;;;;;;;4.80;1.27;;;;;;;16.60;50.46;102683.25;5072558;28;20729;-80
2021/09/30 13:09:21;;;;;;;4.80;1.27;;;;;;;16.62;51.37;102610.28;5073694;28;20232;-81
2021/09/30 13:11:50;;;;;;;3.77;1.37;;;;;;;16.39;52.74;102572.69;5071891;28;20733;-80
2021/09/30 13:14:22;;;;;;;3.43;1.20;;;;;;;15.77;53.62;102520.50;5073149;28;20215;-78
2021/09/30 13:16:50;;;;;;;3.83;1.60;;;;;;;15.46;53.83;102499.63;5073316;28;20231;-79
2021/09/30 13:19:18;;;;;;;4.90;1.60;;;;;;;15.37;55.10;102449.69;5069132;28;20201;-78
2021/09/30 13:22:04;;;;;;;2.67;1.37;;;;;;;14.93;55.55;102415.75;5071681;28;20220;-78
2021/09/30 13:24:33;;;;;;;3.73;1.43;;;;;;;14.50;55.88;102409.75;5071814;28;20215;-78
2021/09/30 13:27:00;;;;;;;3.63;2.00;;;;;;;14.73;57.30;102358.00;5071807;28;20237;-79
2021/09/30 13:29:26;;;;;;;3.57;1.80;;;;;;;14.62;56.14;102384.34;5072167;28;20214;-79
2021/09/30 13:31:53;;;;;;;3.90;1.57;;;;;;;15.91;55.00;102412.41;5072966;28;20750;-77
2021/09/30 13:34:20;;;;;;;5.27;1.90;;;;;;;16.99;51.01;102567.75;5068347;28;20338;-79
2021/09/30 13:36:47;;;;;;;4.57;1.13;;;;;;;17.97;48.55;102686.25;5071944;28;20280;-79
2021/09/30 13:39:14;;;;;;;4.40;1.10;;;;;;;19.09;45.19;102826.53;5071519;28;20205;-80
2021/09/30 13:41:41;;;;;;;2.13;1.20;;;;;;;19.78;43.95;102900.44;5072262;28;20208;-79
2021/09/30 13:44:07;;;;;;;2.77;1.20;;;;;;;19.67;42.60;102973.91;5073057;28;20213;-81
2021/09/30 13:46:34;;;;;;;2.80;0.93;;;;;;;19.71;42.58;102953.56;5071711;28;20233;-80
2021/09/30 13:49:00;;;;;;;3.20;0.83;;;;;;;20.16;41.61;102958.97;5071868;28;20263;-80
2021/09/30 13:51:28;;;;;;;5.17;1.37;;;;;;;20.47;43.13;102889.38;5063739;28;20982;-81
2021/09/30 13:53:55;;;;;;;3.40;1.07;;;;;;;19.72;42.80;102907.63;5051886;28;20682;-81
2021/09/30 13:56:22;;;;;;;3.13;1.13;;;;;;;18.33;44.71;102837.31;5052014;28;20233;-80
2021/09/30 13:58:49;;;;;;;2.27;0.90;;;;;;;18.53;45.32;102770.91;5051969;28;20244;-82
2021/09/30 14:01:16;;;;;;;3.17;1.20;;;;;;;18.17;44.90;102774.06;5051468;28;20263;-82
2021/09/30 14:03:42;;;;;;;3.17;1.13;;;;;;;17.59;45.64;102753.59;5060287;28;20197;-80
2021/09/30 14:06:09;;;;;;;3.43;0.97;;;;;;;17.40;48.31;102628.81;5072319;28;20605;-81